Time;durP1;ratioP1;P1;durP2;ratioP2;P2;SDS_P1;SDS_P2;PMS_P1;PMS_P2;Temp;Humidity;BMP_temperature;BMP_pressure;BME280_temperature;BME280_humidity;BME280_pressure;Samples;Min_cycle;Max_cycle;Signal;HPM_P1;HPM_P2
2022/03/23 00:02:01;;;;;;;4.72;3.30;;;10.60;58.90;;;;;;20792421;28;20148;-82
2022/03/23 00:12:02;;;;;;;6.13;3.38;;;10.60;58.90;;;;;;20794614;28;20045;-82
2022/03/23 00:22:04;;;;;;;5.40;3.25;;;10.60;58.90;;;;;;20806520;28;20192;-82
2022/03/23 00:32:05;;;;;;;5.05;3.42;;;10.60;58.80;;;;;;20809198;28;20113;-82
2022/03/23 00:42:06;;;;;;;6.43;3.80;;;10.50;58.70;;;;;;20808531;28;20044;-82
2022/03/23 00:52:07;;;;;;;5.00;3.10;;;10.50;58.60;;;;;;20807060;28;20104;-82
2022/03/23 01:02:10;;;;;;;6.47;3.85;;;10.50;58.50;;;;;;20806674;28;20033;-81
2022/03/23 01:12:11;;;;;;;6.72;3.63;;;10.50;58.50;;;;;;20807718;28;20132;-83
2022/03/23 01:22:11;;;;;;;9.18;4.35;;;10.50;58.50;;;;;;20804766;28;20789;-81
2022/03/23 01:32:12;;;;;;;6.72;4.15;;;10.50;58.40;;;;;;20805879;28;20056;-81
2022/03/23 01:42:13;;;;;;;5.30;3.60;;;10.50;58.40;;;;;;20805030;28;20380;-81
2022/03/23 01:52:16;;;;;;;6.38;3.72;;;10.40;58.30;;;;;;20803358;28;20124;-80
2022/03/23 02:02:16;;;;;;;5.85;3.85;;;10.40;58.20;;;;;;20804655;28;20064;-81
2022/03/23 02:12:30;;;;;;;7.05;3.88;;;10.40;58.20;;;;;;21229853;22;20035;-83
2022/03/23 02:22:30;;;;;;;5.65;3.63;;;10.40;58.20;;;;;;21048526;28;20197;-85
2022/03/23 02:32:31;;;;;;;7.25;3.95;;;10.40;58.20;;;;;;21063636;28;20068;-85
2022/03/23 02:42:32;;;;;;;6.07;3.95;;;10.30;58.10;;;;;;21029177;28;20036;-84
2022/03/23 02:52:32;;;;;;;6.50;4.35;;;10.40;58.10;;;;;;21045372;28;20036;-85
2022/03/23 03:02:39;;;;;;;7.10;4.17;;;10.40;58.10;;;;;;21060549;28;20058;-83
2022/03/23 03:12:41;;;;;;;;;;;10.30;57.90;;;;;;21028453;28;20305;-84
2022/03/23 03:22:43;;;;;;;7.45;4.22;;;10.30;57.90;;;;;;21026588;28;19919;-85
2022/03/23 03:32:43;;;;;;;8.05;4.15;;;10.30;57.80;;;;;;21025630;28;20043;-87
2022/03/23 03:42:44;;;;;;;7.70;4.28;;;10.30;57.80;;;;;;21025132;28;20035;-85
2022/03/23 03:52:45;;;;;;;7.72;4.40;;;10.20;57.70;;;;;;21056848;28;20107;-86
2022/03/23 04:02:45;;;;;;;7.40;4.57;;;10.30;57.70;;;;;;21040841;28;20055;-85
2022/03/23 04:12:46;;;;;;;7.43;4.90;;;10.20;57.70;;;;;;21040049;28;20306;-85
2022/03/23 04:22:46;;;;;;;8.60;4.50;;;10.20;57.60;;;;;;21022882;28;20720;-84
2022/03/23 04:32:49;;;;;;;5.90;4.32;;;10.20;57.60;;;;;;21040077;28;20573;-85
2022/03/23 04:42:49;;;;;;;8.90;4.40;;;10.20;57.60;;;;;;21022419;28;20534;-86
2022/03/23 04:52:52;;;;;;;6.78;4.32;;;10.20;57.50;;;;;;21021717;28;20036;-85
2022/03/23 05:02:52;;;;;;;7.97;4.95;;;10.20;57.50;;;;;;21010748;28;20032;-85
2022/03/23 05:12:53;;;;;;;7.13;4.60;;;10.10;57.50;;;;;;21052560;28;20036;-85
2022/03/23 05:22:53;;;;;;;7.47;4.47;;;10.10;57.50;;;;;;21052143;28;20321;-85
2022/03/23 05:32:54;;;;;;;8.18;4.65;;;10.10;57.40;;;;;;21052571;28;20055;-85
2022/03/23 05:42:54;;;;;;;8.15;4.55;;;10.10;57.40;;;;;;21050392;28;20119;-86
2022/03/23 05:52:55;;;;;;;8.30;5.32;;;10.10;58.00;;;;;;21066097;28;20032;-86
2022/03/23 06:02:56;;;;;;;9.48;5.22;;;10.00;57.30;;;;;;21048463;28;20089;-82
2022/03/23 06:12:56;;;;;;;7.88;4.82;;;10.00;57.20;;;;;;21046999;28;20065;-83
2022/03/23 06:22:57;;;;;;;6.50;4.33;;;10.00;57.30;;;;;;21030046;28;20032;-82
2022/03/23 06:32:57;;;;;;;8.32;4.78;;;10.00;57.30;;;;;;21062047;28;20282;-83
2022/03/23 06:42:58;;;;;;;13.52;5.70;;;10.00;57.30;;;;;;21061170;28;20293;-83
2022/03/23 06:52:58;;;;;;;12.15;6.03;;;10.00;57.30;;;;;;21043463;28;20042;-75
2022/03/23 07:02:59;;;;;;;9.85;5.50;;;10.00;57.40;;;;;;21060051;28;20081;-81
2022/03/23 07:13:00;;;;;;;9.10;5.18;;;10.00;57.40;;;;;;21077684;28;20046;-79
2022/03/23 07:23:00;;;;;;;7.03;4.87;;;10.00;57.50;;;;;;21026645;28;20036;-80
2022/03/23 07:33:02;;;;;;;8.70;6.03;;;10.00;57.60;;;;;;21009764;28;20286;-79
2022/03/23 07:43:03;;;;;;;9.05;5.28;;;10.00;57.70;;;;;;21008183;28;20290;-75
2022/03/23 07:53:03;;;;;;;8.30;4.45;;;10.00;57.70;;;;;;21057131;28;20036;-78
2022/03/23 08:03:07;;;;;;;9.52;5.57;;;10.00;57.80;;;;;;21015611;28;20047;-82
2022/03/23 08:13:09;;;;;;;7.35;4.57;;;10.00;57.80;;;;;;21005218;28;20058;-80
2022/03/23 08:23:16;;;;;;;9.55;5.45;;;10.00;57.90;;;;;;21018315;28;20040;-79
2022/03/23 08:33:19;;;;;;;6.70;3.67;;;10.00;58.00;;;;;;21035503;28;20074;-77
2022/03/23 08:43:19;;;;;;;6.93;4.55;;;10.10;58.10;;;;;;21011857;28;20421;-76
2022/03/23 08:53:20;;;;;;;7.13;3.97;;;10.10;58.20;;;;;;21045746;28;20098;-80
2022/03/23 09:03:20;;;;;;;5.95;3.72;;;10.10;58.30;;;;;;21032401;28;20035;-78
2022/03/23 09:13:21;;;;;;;6.80;3.58;;;10.10;58.40;;;;;;20971745;28;20127;-78
2022/03/23 09:23:22;;;;;;;6.15;4.03;;;10.10;58.40;;;;;;21042169;28;20424;-77
2022/03/23 09:33:23;;;;;;;5.97;3.50;;;10.10;58.50;;;;;;21010183;28;20028;-77
2022/03/23 09:43:24;;;;;;;5.93;3.47;;;10.20;58.70;;;;;;21058392;28;20847;-77
2022/03/23 09:53:25;;;;;;;8.75;4.45;;;10.20;58.90;;;;;;21044331;28;20368;-77
2022/03/23 10:03:43;;;;;;;8.40;4.57;;;10.20;59.00;;;;;;21009586;28;20178;-77
2022/03/23 10:13:59;;;;;;;9.95;4.18;;;10.30;59.10;;;;;;21056404;28;20048;-76
2022/03/23 10:24:00;;;;;;;11.77;4.20;;;10.30;59.00;;;;;;21050254;28;20031;-77
2022/03/23 10:34:08;;;;;;;8.70;3.80;;;10.40;59.20;;;;;;21081903;28;20040;-75
2022/03/23 10:44:16;;;;;;;7.22;3.55;;;10.40;59.30;;;;;;21025848;28;20039;-76
2022/03/23 10:54:18;;;;;;;6.88;3.70;;;10.40;59.50;;;;;;21041207;28;20528;-76
2022/03/23 11:04:18;;;;;;;8.52;3.58;;;10.40;59.50;;;;;;21024793;28;20036;-77
2022/03/23 11:24:38;;;;;;;9.27;4.20;;;10.40;59.70;;;;;;21044868;28;20111;-75
2022/03/23 11:34:39;;;;;;;5.20;2.75;;;10.40;59.70;;;;;;21039135;28;20135;-78
2022/03/23 11:44:41;;;;;;;8.05;3.47;;;10.40;59.80;;;;;;21023438;28;20036;-76
2022/03/23 12:05:28;;;;;;;6.00;3.22;;;10.50;60.00;;;;;;21044461;28;20444;-78
2022/03/23 12:15:33;;;;;;;7.35;3.47;;;10.50;60.00;;;;;;21037106;28;20036;-80
2022/03/23 12:26:03;;;;;;;7.72;3.40;;;10.50;60.00;;;;;;21051724;28;20037;-79
2022/03/23 12:36:04;;;;;;;6.15;3.45;;;10.50;60.10;;;;;;21039454;28;20466;-79
2022/03/23 12:46:05;;;;;;;6.70;3.65;;;10.50;60.10;;;;;;21037986;28;20028;-79
2022/03/23 13:06:37;;;;;;;7.40;3.00;;;10.60;60.20;;;;;;21050082;28;20111;-78
2022/03/23 13:16:38;;;;;;;5.93;3.58;;;10.60;60.20;;;;;;21035089;28;20039;-75
2022/03/23 13:26:40;;;;;;;5.55;2.42;;;10.60;60.20;;;;;;21058020;28;20036;-75
2022/03/23 13:36:42;;;;;;;4.32;3.10;;;10.70;60.60;;;;;;21031874;28;20089;-74
2022/03/23 13:46:44;;;;;;;4.65;2.75;;;10.70;60.80;;;;;;21015429;28;20032;-74
2022/03/23 13:56:45;;;;;;;4.82;2.63;;;10.80;61.10;;;;;;21030028;28;20086;-74
2022/03/23 14:06:51;;;;;;;6.75;3.03;;;10.80;61.20;;;;;;21046223;28;20493;-75
2022/03/23 14:17:18;;;;;;;5.35;2.65;;;10.90;61.40;;;;;;21012779;28;20067;-76
2022/03/23 14:27:39;;;;;;;4.32;2.83;;;11.00;61.70;;;;;;21029340;28;20094;-75
2022/03/23 14:37:41;;;;;;;4.20;2.53;;;11.00;61.60;;;;;;21055604;28;20032;-77
2022/03/23 14:47:48;;;;;;;10.10;3.40;;;11.10;61.60;;;;;;21028836;28;20078;-77
2022/03/23 14:57:49;;;;;;;;;;;11.10;61.50;;;;;;21023734;28;20036;-77
2022/03/23 15:18:09;;;;;;;6.75;2.90;;;11.30;61.30;;;;;;21042678;28;20064;-81
2022/03/23 15:28:09;;;;;;;10.75;4.65;;;11.40;61.10;;;;;;21021569;28;20040;-79
2022/03/23 15:38:10;;;;;;;11.65;4.40;;;11.40;60.80;;;;;;21003747;28;20055;-81
2022/03/23 15:48:13;;;;;;;7.45;3.30;;;11.50;60.30;;;;;;21020499;28;20378;-77
2022/03/23 15:58:14;;;;;;;20.85;3.70;;;11.60;60.20;;;;;;21021695;28;20039;-78
2022/03/23 16:08:14;;;;;;;11.52;3.63;;;11.70;60.00;;;;;;21035492;28;20033;-79
2022/03/23 16:18:15;;;;;;;4.75;2.38;;;11.70;59.90;;;;;;21069857;28;20504;-83
2022/03/23 16:28:15;;;;;;;7.75;2.78;;;11.70;59.90;;;;;;21002570;28;20482;-79
2022/03/23 16:38:19;;;;;;;7.28;3.42;;;11.70;59.90;;;;;;21002224;28;20078;-79
2022/03/23 16:48:20;;;;;;;6.85;3.40;;;11.70;59.80;;;;;;21034459;28;20047;-79
2022/03/23 16:58:20;;;;;;;5.88;3.00;;;11.70;59.70;;;;;;21079184;28;20041;-79
2022/03/23 17:18:41;;;;;;;3.47;2.00;;;11.70;59.90;;;;;;21056406;28;20024;-73
2022/03/23 17:28:42;;;;;;;4.38;1.88;;;11.60;60.10;;;;;;21064316;28;20039;-75
2022/03/23 17:38:43;;;;;;;8.32;3.13;;;11.50;60.40;;;;;;21023718;28;20028;-75
2022/03/23 17:48:43;;;;;;;5.57;2.70;;;11.50;60.60;;;;;;21063863;28;20085;-78
2022/03/23 17:58:44;;;;;;;5.32;2.85;;;11.40;60.70;;;;;;21040189;28;20457;-82
2022/03/23 18:08:45;;;;;;;5.22;3.03;;;11.40;60.80;;;;;;21028758;28;20039;-77
2022/03/23 18:18:46;;;;;;;5.80;3.05;;;11.40;60.80;;;;;;21060447;28;20038;-81
2022/03/23 18:28:47;;;;;;;3.25;1.90;;;11.30;60.90;;;;;;21061202;28;20485;-78
2022/03/23 18:38:49;;;;;;;5.13;2.10;;;11.30;61.00;;;;;;21056308;28;20032;-80
2022/03/23 18:48:50;;;;;;;4.53;2.78;;;11.30;61.00;;;;;;21061092;28;20032;-79
2022/03/23 18:58:51;;;;;;;3.70;2.00;;;11.20;61.00;;;;;;21006619;28;20409;-75
2022/03/23 19:08:52;;;;;;;5.68;2.67;;;11.20;60.90;;;;;;21027502;28;20036;-75
2022/03/23 19:18:52;;;;;;;3.38;2.55;;;11.20;60.90;;;;;;21028463;28;20131;-77
2022/03/23 19:28:54;;;;;;;3.70;2.25;;;11.10;60.90;;;;;;21028880;28;20032;-79
2022/03/23 19:38:57;;;;;;;3.85;2.17;;;11.10;60.90;;;;;;21007551;28;20394;-80
2022/03/23 19:48:59;;;;;;;4.30;2.35;;;11.10;60.90;;;;;;21038426;28;20040;-79
2022/03/23 19:58:59;;;;;;;6.93;2.70;;;11.10;60.90;;;;;;21036567;28;20697;-78
2022/03/23 20:09:00;;;;;;;7.80;2.67;;;11.10;60.90;;;;;;21034761;28;20036;-79
2022/03/23 20:19:00;;;;;;;3.70;2.33;;;11.20;61.00;;;;;;21052236;28;20385;-77
2022/03/23 20:29:02;;;;;;;4.05;2.55;;;11.10;61.00;;;;;;21019571;28;20044;-78
2022/03/23 20:39:03;;;;;;;4.97;2.53;;;11.10;61.00;;;;;;21034874;28;20047;-77
2022/03/23 20:49:07;;;;;;;4.97;2.67;;;11.00;60.90;;;;;;21053401;28;20397;-78
2022/03/23 20:59:08;;;;;;;6.18;2.97;;;11.10;61.00;;;;;;21037000;28;20067;-78
2022/03/23 21:09:09;;;;;;;4.85;3.22;;;11.00;61.00;;;;;;21053180;28;20458;-77
2022/03/23 21:19:10;;;;;;;5.05;3.08;;;11.00;60.90;;;;;;21034712;28;20493;-77
2022/03/23 21:29:12;;;;;;;5.28;2.65;;;11.00;60.90;;;;;;21050746;28;20389;-78
2022/03/23 21:39:15;;;;;;;4.30;2.78;;;11.00;60.90;;;;;;21066359;28;20036;-77
2022/03/23 21:49:16;;;;;;;4.40;2.60;;;11.00;60.90;;;;;;21032885;28;20032;-78
2022/03/23 21:59:16;;;;;;;7.05;3.60;;;11.00;60.90;;;;;;21047827;28;20040;-78
2022/03/23 22:09:17;;;;;;;7.60;3.17;;;11.00;60.90;;;;;;21047583;28;20072;-77
2022/03/23 22:19:17;;;;;;;6.78;3.58;;;11.00;60.90;;;;;;21081508;28;20043;-78
2022/03/23 22:29:18;;;;;;;6.22;3.80;;;11.00;60.80;;;;;;21046054;28;20085;-78
2022/03/23 22:39:18;;;;;;;7.20;4.32;;;11.00;60.70;;;;;;21045019;28;20066;-78
2022/03/23 22:49:19;;;;;;;10.00;4.25;;;10.90;60.60;;;;;;21061269;28;20032;-77
2022/03/23 22:59:20;;;;;;;10.55;4.38;;;10.90;60.50;;;;;;21026375;28;20036;-78
2022/03/23 23:09:20;;;;;;;6.38;4.07;;;10.90;60.40;;;;;;21042946;28;20453;-78
2022/03/23 23:19:21;;;;;;;8.63;4.50;;;10.90;60.30;;;;;;21042734;28;20036;-78
2022/03/23 23:29:41;;;;;;;6.82;3.83;;;11.00;60.30;;;;;;21075512;28;20060;-78
2022/03/23 23:39:41;;;;;;;6.97;4.00;;;10.90;60.20;;;;;;21040370;28;20040;-79
2022/03/23 23:49:42;;;;;;;7.22;4.22;;;10.90;60.10;;;;;;21056268;28;20202;-77
2022/03/23 23:59:44;;;;;;;8.68;4.47;;;10.90;60.10;;;;;;21022426;28;20051;-78
